Time;durP1;ratioP1;P1;durP2;ratioP2;P2;SDS_P1;SDS_P2;PMS_P1;PMS_P2;Temp;Humidity;BMP_temperature;BMP_pressure;BME280_temperature;BME280_humidity;BME280_pressure;Samples;Min_cycle;Max_cycle;Signal;HPM_P1;HPM_P2
2023/05/19 00:02:14;;;;;;;14.07;5.03;;;;;;;-146.27;86.26;83501.22;5032500;28;20056;-67
2023/05/19 00:04:40;;;;;;;7.70;3.90;;;;;;;-146.27;86.18;83477.13;5050303;28;20029;-69
2023/05/19 00:07:10;;;;;;;9.55;3.50;;;;;;;-146.27;86.32;83501.22;5049390;28;20032;-68
2023/05/19 00:09:36;;;;;;;6.93;3.33;;;;;;;-146.27;86.83;83493.19;5044718;28;20112;-69
2023/05/19 00:12:01;;;;;;;17.13;3.90;;;;;;;-146.27;86.32;83545.44;5034095;28;20060;-68
2023/05/19 00:14:27;;;;;;;12.10;4.32;;;;;;;-146.27;86.48;83527.34;5034635;28;20029;-69
2023/05/19 00:16:54;;;;;;;8.27;3.20;;;;;;;-146.27;86.95;83541.41;5050694;28;20033;-68
2023/05/19 00:19:20;;;;;;;12.70;3.70;;;;;;;-146.27;86.37;83521.34;5053573;28;20029;-68
2023/05/19 00:21:46;;;;;;;8.57;3.40;;;;;;;-146.27;86.49;83525.34;5043239;28;20037;-67
2023/05/19 00:24:12;;;;;;;7.63;4.00;;;;;;;-146.27;87.44;83497.22;5041344;28;20522;-68
2023/05/19 00:26:37;;;;;;;10.07;3.80;;;;;;;-146.27;85.78;83573.56;5032727;28;20057;-69
2023/05/19 00:29:02;;;;;;;9.32;3.47;;;;;;;-146.27;86.45;83499.22;5044613;28;20028;-68
2023/05/19 00:31:28;;;;;;;8.57;3.47;;;;;;;-146.27;85.77;83557.50;5045665;28;20380;-69
2023/05/19 00:33:53;;;;;;;12.00;3.47;;;;;;;-146.27;86.62;83533.38;5034969;28;20487;-68
2023/05/19 00:36:19;;;;;;;5.97;3.25;;;;;;;-146.27;86.91;83557.50;5041867;28;20071;-69
2023/05/19 00:38:44;;;;;;;8.18;3.30;;;;;;;-146.27;86.64;83531.38;5053110;28;20021;-67
2023/05/19 00:41:10;;;;;;;14.77;4.07;;;;;;;-146.27;86.41;83555.50;5053266;28;20404;-69
2023/05/19 00:43:35;;;;;;;11.68;3.58;;;;;;;-146.27;86.75;83521.34;5050600;28;20129;-69
2023/05/19 00:46:01;;;;;;;13.25;3.95;;;;;;;-146.27;87.56;83569.56;5051212;28;20032;-67
2023/05/19 00:48:27;;;;;;;6.57;4.30;;;;;;;-146.27;86.94;83545.44;5045302;28;20040;-67
2023/05/19 00:51:00;;;;;;;7.13;3.13;;;;;;;-146.27;87.62;83555.50;5040247;28;20066;-67
2023/05/19 00:53:26;;;;;;;8.20;3.47;;;;;;;-146.27;86.91;83599.69;5051009;28;20664;-67
2023/05/19 00:55:52;;;;;;;11.02;3.70;;;;;;;-146.27;88.65;83541.41;5053574;28;20028;-68
2023/05/19 00:58:18;;;;;;;8.35;3.67;;;;;;;-146.27;87.90;83555.50;5047704;28;20453;-68
2023/05/19 01:00:44;;;;;;;11.00;3.80;;;;;;;-146.27;87.88;83589.66;5053292;28;20040;-69
2023/05/19 01:03:10;;;;;;;10.95;3.58;;;;;;;-146.27;87.94;83599.69;5053132;28;20033;-69
2023/05/19 01:05:43;;;;;;;11.45;3.90;;;;;;;-146.27;88.91;83605.72;5041266;28;20033;-69
2023/05/19 01:08:09;;;;;;;14.02;3.92;;;;;;;-146.27;88.10;83605.72;5047707;28;20120;-68
2023/05/19 01:10:35;;;;;;;8.40;4.18;;;;;;;-146.27;89.06;83633.84;5050103;28;21806;-67
2023/05/19 01:13:04;;;;;;;13.70;4.07;;;;;;;-146.27;88.02;83635.88;5038665;28;20036;-68
2023/05/19 01:15:40;;;;;;;8.30;4.22;;;;;;;-146.27;89.39;83573.56;5049662;28;20049;-67
2023/05/19 01:18:17;;;;;;;7.03;3.40;;;;;;;-146.27;89.58;83615.78;5049759;28;20117;-68
2023/05/19 01:21:29;;;;;;;9.65;3.78;;;;;;;-146.27;89.08;83672.03;5043774;28;20029;-68
2023/05/19 01:24:24;;;;;;;7.97;3.75;;;;;;;-146.27;90.10;83631.84;5044636;28;20049;-68
2023/05/19 01:27:21;;;;;;;9.98;4.10;;;;;;;-146.27;90.61;83617.78;5030268;28;20111;-68
2023/05/19 01:30:24;;;;;;;13.20;4.20;;;;;;;-146.27;90.68;83657.97;5032127;28;20053;-69
2023/05/19 01:32:52;;;;;;;11.02;4.07;;;;;;;-146.27;89.58;83662.00;5043497;28;20100;-69
2023/05/19 01:35:19;;;;;;;7.97;4.03;;;;;;;-146.27;90.76;83647.91;5051683;28;20114;-68
2023/05/19 01:37:46;;;;;;;16.02;3.65;;;;;;;-146.27;90.37;83674.03;5052715;28;20503;-68
2023/05/19 01:40:11;;;;;;;9.45;4.20;;;;;;;-146.27;90.82;83682.09;5050924;28;20036;-67
2023/05/19 01:42:39;;;;;;;10.70;4.03;;;;;;;-146.27;90.92;83712.22;5040498;28;20028;-68
2023/05/19 01:45:09;;;;;;;8.55;3.97;;;;;;;-146.27;91.45;83690.13;5040931;28;20029;-69
2023/05/19 01:47:38;;;;;;;12.35;3.95;;;;;;;-146.27;90.23;83696.16;5048175;28;20055;-69
2023/05/19 01:50:05;;;;;;;10.20;3.58;;;;;;;-146.27;91.32;83708.22;5041285;28;20034;-67
2023/05/19 01:52:30;;;;;;;10.73;4.20;;;;;;;-146.27;91.07;83702.19;5035773;28;20042;-70
2023/05/19 01:54:56;;;;;;;10.02;4.10;;;;;;;-146.27;91.93;83686.09;5041758;28;20238;-69
2023/05/19 01:57:52;;;;;;;11.07;4.03;;;;;;;-146.27;90.73;83714.22;5032692;28;20036;-69
2023/05/19 02:00:51;;;;;;;14.88;4.53;;;;;;;-146.27;90.78;83702.19;5038323;28;20040;-67
2023/05/19 02:03:41;;;;;;;10.48;4.10;;;;;;;-146.27;91.07;83700.16;5051164;28;20044;-69
2023/05/19 02:07:04;;;;;;;9.02;4.20;;;;;;;-146.27;92.01;83706.19;5047485;28;20053;-69
2023/05/19 02:10:04;;;;;;;13.68;4.18;;;;;;;-146.27;90.04;83710.22;5028028;28;20063;-69
2023/05/19 02:12:34;;;;;;;10.98;4.35;;;;;;;-146.27;90.70;83730.31;5027525;28;20043;-69
2023/05/19 02:15:06;;;;;;;13.68;4.00;;;;;;;-146.27;90.92;83738.34;5039217;28;20374;-69
2023/05/19 02:17:35;;;;;;;7.50;3.83;;;;;;;-146.27;90.86;83742.38;5044799;28;20048;-67
2023/05/19 02:20:01;;;;;;;7.57;4.00;;;;;;;-146.27;91.54;83798.63;5044404;28;20095;-68
2023/05/19 02:22:26;;;;;;;8.25;4.47;;;;;;;-146.27;91.82;83792.59;5038138;28;20332;-68
2023/05/19 02:24:52;;;;;;;8.20;4.93;;;;;;;-146.27;91.94;83790.59;5037512;28;20049;-68
2023/05/19 02:27:17;;;;;;;9.60;3.90;;;;;;;-146.27;92.60;83850.88;5046020;28;20542;-67
2023/05/19 02:29:43;;;;;;;11.70;4.80;;;;;;;-146.27;92.55;83804.66;5051866;28;20061;-69
2023/05/19 02:32:09;;;;;;;8.02;3.75;;;;;;;-146.27;92.45;83830.78;5041017;28;20033;-69
2023/05/19 02:34:35;;;;;;;9.10;4.25;;;;;;;-146.27;92.77;83846.84;5048826;28;20029;-68
2023/05/19 02:37:00;;;;;;;11.43;4.32;;;;;;;-146.27;92.85;83868.97;5050893;28;20040;-68
2023/05/19 02:39:28;;;;;;;9.52;4.63;;;;;;;-146.27;93.30;83816.72;5040436;28;20433;-69
2023/05/19 02:41:53;;;;;;;10.02;4.55;;;;;;;-146.27;92.94;83854.91;5042867;28;20022;-68
2023/05/19 02:44:18;;;;;;;11.95;3.97;;;;;;;-146.27;93.49;83866.97;5048115;28;20040;-68
2023/05/19 02:46:43;;;;;;;9.30;4.45;;;;;;;-146.27;93.73;83862.94;5044190;28;20017;-67
2023/05/19 02:49:10;;;;;;;9.50;4.13;;;;;;;-146.27;93.90;83818.72;5045842;28;20369;-68
2023/05/19 02:51:35;;;;;;;8.25;4.68;;;;;;;-146.27;93.58;83862.94;5038672;28;20401;-68
2023/05/19 02:54:00;;;;;;;15.57;4.22;;;;;;;-146.27;94.09;83919.19;5041381;28;20026;-68
2023/05/19 02:56:27;;;;;;;9.93;4.45;;;;;;;-146.27;95.63;83870.97;5032442;28;20033;-68
2023/05/19 02:58:52;;;;;;;17.55;4.53;;;;;;;-146.27;93.98;83854.91;5044741;28;20025;-69
2023/05/19 03:01:20;;;;;;;9.32;3.78;;;;;;;-146.27;93.97;83875.00;5042700;28;20488;-69
2023/05/19 03:03:45;;;;;;;7.93;4.10;;;;;;;-146.27;94.48;83901.13;5047375;28;20047;-67
2023/05/19 03:06:11;;;;;;;10.77;4.60;;;;;;;-146.27;94.38;83872.97;5043526;28;20028;-70
2023/05/19 03:08:37;;;;;;;8.93;4.32;;;;;;;-146.27;94.98;83883.03;5041986;28;20032;-68
2023/05/19 03:11:02;;;;;;;10.77;4.28;;;;;;;-146.27;94.48;83919.19;5047359;28;20530;-68
2023/05/19 03:13:27;;;;;;;15.18;4.07;;;;;;;-146.27;94.34;83885.03;5040926;28;20031;-68
2023/05/19 03:15:56;;;;;;;9.85;4.20;;;;;;;-146.27;94.60;83919.19;5050640;28;20056;-69
2023/05/19 03:18:23;;;;;;;12.73;4.22;;;;;;;-146.27;94.06;83921.22;5032492;28;20671;-68
2023/05/19 03:20:48;;;;;;;11.73;4.03;;;;;;;-146.27;94.64;83832.78;5031372;28;20068;-68
2023/05/19 03:23:14;;;;;;;11.07;4.65;;;;;;;-146.27;95.20;83919.19;5036252;28;20112;-68
2023/05/19 03:25:39;;;;;;;9.65;4.53;;;;;;;-146.27;94.25;83887.06;5031087;28;20022;-69
2023/05/19 03:28:04;;;;;;;8.25;4.65;;;;;;;-146.27;95.13;83862.94;5046036;28;20552;-69
2023/05/19 03:30:30;;;;;;;7.25;3.67;;;;;;;-146.27;94.03;83899.09;5047339;28;20052;-69
2023/05/19 03:32:55;;;;;;;13.20;4.55;;;;;;;-146.27;94.41;83899.09;5041456;28;20060;-69
2023/05/19 03:35:20;;;;;;;12.13;5.05;;;;;;;-146.27;94.93;83943.31;5046006;28;20063;-68
2023/05/19 03:37:46;;;;;;;17.00;4.80;;;;;;;-146.27;94.87;83903.13;5049478;28;20025;-69
2023/05/19 03:40:12;;;;;;;10.52;4.72;;;;;;;-146.27;95.18;83963.41;5042232;28;20112;-69
2023/05/19 03:42:37;;;;;;;18.40;6.65;;;;;;;-146.27;95.67;83961.41;5050190;28;20043;-69
2023/05/19 03:45:03;;;;;;;11.40;5.43;;;;;;;-146.27;95.86;83957.38;5050109;28;20025;-67
2023/05/19 03:47:28;;;;;;;10.05;4.50;;;;;;;-146.27;96.02;83939.31;5035041;28;20030;-68
2023/05/19 03:49:53;;;;;;;8.25;4.20;;;;;;;-146.27;96.42;83897.09;5045482;28;20644;-69
2023/05/19 03:52:19;;;;;;;6.10;4.30;;;;;;;-146.27;96.25;83965.44;5042616;28;20021;-68
2023/05/19 03:54:44;;;;;;;10.23;4.68;;;;;;;-146.27;97.32;83935.28;5046753;28;20043;-69
2023/05/19 03:57:10;;;;;;;12.05;4.90;;;;;;;-146.27;96.81;83955.38;5042364;28;20465;-68
2023/05/19 03:59:36;;;;;;;8.95;5.25;;;;;;;-146.27;97.32;83931.25;5046279;28;20298;-69
2023/05/19 04:02:01;;;;;;;15.68;5.25;;;;;;;-146.27;96.78;83907.16;5040911;28;20036;-68
2023/05/19 04:04:27;;;;;;;14.70;5.13;;;;;;;-146.27;98.28;83927.25;5051937;28;20041;-68
2023/05/19 04:06:52;;;;;;;11.23;4.70;;;;;;;-146.27;97.48;83919.19;5046244;28;20032;-68
2023/05/19 04:09:18;;;;;;;9.00;4.85;;;;;;;-146.27;97.80;83899.09;5043080;28;20515;-69
2023/05/19 04:11:43;;;;;;;11.95;5.05;;;;;;;-146.27;98.73;83923.22;5049067;28;20359;-69
2023/05/19 04:14:09;;;;;;;6.55;4.38;;;;;;;-146.27;98.23;83921.22;5053765;28;20434;-69
2023/05/19 04:16:34;;;;;;;9.98;4.70;;;;;;;-146.27;97.35;83862.94;5054188;28;20044;-70
2023/05/19 04:19:00;;;;;;;8.60;4.85;;;;;;;-146.27;97.30;83915.19;5049111;28;20388;-69
2023/05/19 04:21:26;;;;;;;9.77;5.75;;;;;;;-146.27;98.00;83872.97;5048586;28;20040;-68
2023/05/19 04:23:52;;;;;;;12.25;5.50;;;;;;;-146.27;98.76;83879.00;5063615;28;20024;-68
2023/05/19 04:26:20;;;;;;;16.52;5.32;;;;;;;-146.27;99.14;83883.03;5053833;28;20032;-68
2023/05/19 04:28:47;;;;;;;10.80;5.07;;;;;;;-146.27;98.35;83838.81;5051494;28;20102;-70
2023/05/19 04:31:13;;;;;;;15.50;5.40;;;;;;;-146.27;98.55;83881.03;5053812;28;20033;-69
2023/05/19 04:33:39;;;;;;;12.70;5.18;;;;;;;-146.27;99.04;83866.97;5053099;28;20036;-69
2023/05/19 04:36:09;;;;;;;11.48;5.10;;;;;;;-146.27;99.54;83891.06;5048070;28;20025;-69
2023/05/19 04:38:41;;;;;;;14.60;5.25;;;;;;;-146.27;98.79;83858.91;5050590;28;20021;-69
2023/05/19 04:41:09;;;;;;;13.68;5.28;;;;;;;-146.27;98.40;83850.88;5042224;28;20057;-68
2023/05/19 04:43:35;;;;;;;13.00;5.00;;;;;;;-146.27;98.75;83850.88;5044479;28;20051;-69
2023/05/19 04:46:04;;;;;;;12.48;5.78;;;;;;;-146.27;99.02;83744.38;5042149;28;20112;-67
2023/05/19 04:48:30;;;;;;;15.18;5.15;;;;;;;-146.27;98.84;83844.84;5044811;28;20079;-70
2023/05/19 04:50:55;;;;;;;17.52;5.78;;;;;;;-146.27;99.71;83830.78;5044060;28;20028;-69
2023/05/19 04:53:21;;;;;;;13.88;5.93;;;;;;;-146.27;99.14;83844.84;5039485;28;20660;-70
2023/05/19 04:55:46;;;;;;;16.10;6.03;;;;;;;-146.27;99.61;83838.81;5044914;28;20078;-69
2023/05/19 04:58:11;;;;;;;14.93;5.40;;;;;;;-146.27;99.82;83794.63;5043489;28;20025;-68
2023/05/19 05:00:37;;;;;;;10.68;5.25;;;;;;;-146.27;99.54;83828.78;5038131;28;20424;-69
2023/05/19 05:03:06;;;;;;;21.67;6.13;;;;;;;-146.27;100.00;83784.56;5050236;28;20465;-68
2023/05/19 05:05:32;;;;;;;14.00;5.22;;;;;;;-146.27;99.83;83788.59;5051937;28;20346;-70
2023/05/19 05:07:57;;;;;;;13.75;5.78;;;;;;;-146.27;99.72;83754.44;5050951;28;20031;-68
2023/05/19 05:10:23;;;;;;;7.55;5.03;;;;;;;-146.27;99.92;83754.44;5042465;28;20569;-71
2023/05/19 05:12:49;;;;;;;16.52;5.32;;;;;;;-146.27;100.00;83764.47;5051303;28;20029;-69
2023/05/19 05:15:15;;;;;;;10.68;5.07;;;;;;;-146.27;99.44;83738.34;5054567;28;20388;-69
2023/05/19 05:17:40;;;;;;;11.45;6.03;;;;;;;-146.27;99.83;83726.28;5053308;28;20040;-68
2023/05/19 05:20:06;;;;;;;10.88;6.00;;;;;;;-146.27;100.00;83708.22;5052294;28;20032;-68
2023/05/19 05:22:32;;;;;;;14.65;5.70;;;;;;;-146.27;99.92;83706.19;5046930;28;20033;-69
2023/05/19 05:24:58;;;;;;;13.55;5.95;;;;;;;-146.27;100.00;83702.19;5046289;28;20499;-69
2023/05/19 05:27:23;;;;;;;14.50;5.60;;;;;;;-146.27;100.00;83720.25;5044168;28;20036;-68
2023/05/19 05:29:49;;;;;;;7.78;5.32;;;;;;;-146.27;100.00;83728.31;5040438;28;20029;-73
2023/05/19 05:32:15;;;;;;;17.13;5.90;;;;;;;-146.27;100.00;83682.09;5048425;28;20024;-72
2023/05/19 05:34:41;;;;;;;10.65;5.40;;;;;;;-146.27;100.00;83657.97;5051836;28;20024;-72
2023/05/19 05:37:06;;;;;;;13.63;5.60;;;;;;;-146.27;100.00;83684.09;5055038;28;20036;-73
2023/05/19 05:39:32;;;;;;;13.60;6.57;;;;;;;-146.27;100.00;83666.00;5053482;28;20447;-74
2023/05/19 05:41:57;;;;;;;17.40;6.38;;;;;;;-146.27;100.00;83734.31;5035834;28;20056;-74
2023/05/19 05:44:22;;;;;;;16.73;5.68;;;;;;;-146.27;100.00;83645.91;5042555;28;20025;-75
2023/05/19 05:46:48;;;;;;;15.07;6.28;;;;;;;-146.27;100.00;83617.78;5049679;28;20611;-75
2023/05/19 05:49:14;;;;;;;15.88;5.88;;;;;;;-146.27;100.00;83621.81;5050260;28;20036;-74
2023/05/19 05:51:39;;;;;;;14.27;6.05;;;;;;;-146.27;100.00;83581.59;5041564;28;20534;-75
2023/05/19 05:54:06;;;;;;;14.05;6.25;;;;;;;-146.27;99.87;83603.72;5045018;28;20128;-76
2023/05/19 05:56:32;;;;;;;13.45;6.50;;;;;;;-146.27;100.00;83567.53;5045211;28;20035;-75
2023/05/19 05:58:58;;;;;;;14.73;6.57;;;;;;;-146.27;99.58;83569.56;5052052;28;20028;-76
2023/05/19 06:01:23;;;;;;;14.18;6.18;;;;;;;-146.27;98.63;83619.78;5036816;28;20094;-76
2023/05/19 06:03:49;;;;;;;17.98;6.53;;;;;;;-146.27;99.35;83559.50;5050906;28;20028;-74
2023/05/19 06:06:17;;;;;;;17.48;5.93;;;;;;;-146.27;98.39;83533.38;5049891;28;20028;-76
2023/05/19 06:08:42;;;;;;;12.38;6.57;;;;;;;-146.27;98.52;83537.41;5050447;28;20029;-75
2023/05/19 06:11:08;;;;;;;13.07;6.50;;;;;;;-146.27;98.33;83573.56;5043154;28;20135;-76
2023/05/19 06:13:37;;;;;;;17.30;6.75;;;;;;;-146.27;98.60;83529.38;5046823;28;20475;-76
2023/05/19 06:16:04;;;;;;;17.10;6.45;;;;;;;-146.27;97.66;83537.41;5044286;28;20542;-75
2023/05/19 06:18:30;;;;;;;18.55;6.28;;;;;;;-146.27;96.63;83493.19;5057360;28;20099;-76
2023/05/19 06:20:56;;;;;;;12.57;6.13;;;;;;;-146.27;96.66;83511.28;5055979;28;20111;-76
2023/05/19 06:23:21;;;;;;;15.25;5.85;;;;;;;-146.27;96.30;83446.97;5048768;28;20028;-74
2023/05/19 06:25:46;;;;;;;12.70;5.97;;;;;;;-146.27;95.19;83489.19;5051229;28;20731;-74
2023/05/19 06:28:12;;;;;;;20.52;6.38;;;;;;;-146.27;96.32;83497.22;5052829;28;20030;-73
2023/05/19 06:30:37;;;;;;;11.15;5.95;;;;;;;-146.27;95.15;83469.09;5044224;28;20100;-74
2023/05/19 06:33:05;;;;;;;14.65;5.82;;;;;;;-146.27;95.47;83461.06;5044023;28;20025;-74
2023/05/19 06:35:31;;;;;;;13.68;6.22;;;;;;;-146.27;95.37;83442.97;5044516;28;20032;-71
2023/05/19 06:37:56;;;;;;;16.17;5.82;;;;;;;-146.27;95.43;83442.97;5044485;28;20440;-71
2023/05/19 06:40:22;;;;;;;14.02;7.18;;;;;;;-146.27;94.53;83408.81;5049519;28;20542;-71
2023/05/19 06:42:48;;;;;;;13.35;6.03;;;;;;;-146.27;94.86;83356.56;5034159;28;20029;-71
2023/05/19 06:45:13;;;;;;;18.38;6.43;;;;;;;-146.27;93.96;83346.53;5052163;28;20086;-72
2023/05/19 06:47:43;;;;;;;12.35;6.10;;;;;;;-146.27;93.50;83444.97;5043812;28;20021;-72
2023/05/19 06:50:11;;;;;;;12.38;6.38;;;;;;;-146.27;93.93;83372.63;5051579;28;20063;-72
2023/05/19 06:52:37;;;;;;;16.30;5.57;;;;;;;-146.27;93.86;83344.50;5058200;28;20016;-71
2023/05/19 06:55:02;;;;;;;11.70;5.95;;;;;;;-146.27;93.61;83398.75;5054444;28;20500;-71
2023/05/19 06:57:27;;;;;;;13.55;6.40;;;;;;;-146.27;92.28;83358.56;5054477;28;20035;-72
2023/05/19 06:59:53;;;;;;;16.90;6.68;;;;;;;-146.27;92.58;83336.47;5056577;28;20028;-72
2023/05/19 07:02:18;;;;;;;17.02;6.20;;;;;;;-146.27;92.29;83300.31;5044351;28;20048;-72
2023/05/19 07:04:46;;;;;;;15.98;6.25;;;;;;;-146.27;92.25;83324.41;5043745;28;20055;-72
2023/05/19 07:07:12;;;;;;;11.73;6.10;;;;;;;-146.27;92.15;83314.38;5050741;28;20693;-71
2023/05/19 07:09:37;;;;;;;12.93;5.80;;;;;;;-146.27;91.29;83316.38;5053080;28;20123;-72
2023/05/19 07:12:03;;;;;;;16.40;6.47;;;;;;;-146.27;90.71;83300.31;5045722;28;20068;-71
2023/05/19 07:14:28;;;;;;;19.52;6.47;;;;;;;-146.27;91.18;83292.28;5035238;28;20481;-72
2023/05/19 07:16:53;;;;;;;18.67;6.22;;;;;;;-146.27;91.55;83294.28;5043314;28;20104;-69
2023/05/19 07:19:19;;;;;;;10.65;5.60;;;;;;;-146.27;91.55;83276.19;5035627;28;20049;-68
2023/05/19 07:21:45;;;;;;;10.60;6.15;;;;;;;-146.27;90.42;83258.13;5043474;28;20059;-69
2023/05/19 07:24:11;;;;;;;11.02;5.50;;;;;;;-146.27;89.98;83234.00;5040602;28;20489;-69
2023/05/19 07:26:36;;;;;;;16.63;6.10;;;;;;;-146.27;90.26;83179.75;5035845;28;20071;-68
2023/05/19 07:29:01;;;;;;;13.35;6.30;;;;;;;-146.27;90.61;83185.78;5048563;28;20057;-72
2023/05/19 07:31:27;;;;;;;13.07;4.97;;;;;;;-146.27;89.65;83201.84;5040559;28;20494;-71
2023/05/19 07:33:52;;;;;;;12.07;5.97;;;;;;;-146.27;89.20;83193.81;5049280;28;20032;-72
2023/05/19 07:36:17;;;;;;;17.20;5.90;;;;;;;-146.27;87.65;83219.94;5044476;28;20461;-71
2023/05/19 07:38:45;;;;;;;11.10;6.13;;;;;;;-146.27;87.23;83147.59;5037266;28;20083;-71
2023/05/19 07:41:10;;;;;;;12.57;5.88;;;;;;;-146.27;86.85;83169.69;5049170;28;20033;-72
2023/05/19 07:43:35;;;;;;;16.30;6.60;;;;;;;-146.27;86.95;83111.44;5053784;28;20029;-71
2023/05/19 07:46:01;;;;;;;11.80;5.15;;;;;;;-146.27;84.31;83063.22;5052486;28;20071;-72
2023/05/19 07:48:26;;;;;;;13.18;5.47;;;;;;;-146.27;84.25;83039.09;5051304;28;20044;-71
2023/05/19 07:50:52;;;;;;;13.45;4.82;;;;;;;-146.27;83.26;82970.81;5046956;28;20070;-71
2023/05/19 07:53:18;;;;;;;13.82;4.72;;;;;;;-146.27;83.19;83037.09;5047873;28;20040;-72
2023/05/19 07:55:43;;;;;;;10.35;4.95;;;;;;;-146.27;81.59;83019.03;5047527;28;20037;-70
2023/05/19 07:58:08;;;;;;;18.80;5.20;;;;;;;-146.27;79.72;82952.72;5043357;28;20047;-71
2023/05/19 08:00:34;;;;;;;11.18;4.07;;;;;;;-146.27;78.98;82936.66;5040160;28;20377;-72
2023/05/19 08:03:00;;;;;;;15.85;5.22;;;;;;;-146.27;80.13;82928.59;5033998;28;20484;-72
2023/05/19 08:05:25;;;;;;;12.95;5.10;;;;;;;-146.27;78.76;82876.38;5048925;28;20067;-72
2023/05/19 08:07:51;;;;;;;17.13;4.55;;;;;;;-146.27;76.05;82882.41;5053645;28;20028;-73
2023/05/19 08:10:17;;;;;;;14.25;4.32;;;;;;;-146.27;76.55;82878.38;5059980;28;20199;-72
2023/05/19 08:12:43;;;;;;;9.85;5.07;;;;;;;-146.27;76.14;82884.41;5046817;28;20025;-71
2023/05/19 08:15:10;;;;;;;12.73;4.85;;;;;;;-146.27;77.12;82874.38;5040842;28;20029;-71
2023/05/19 08:17:36;;;;;;;17.50;4.05;;;;;;;-146.27;75.98;82854.28;5046114;28;20490;-72
2023/05/19 08:20:02;;;;;;;10.77;3.50;;;;;;;-146.27;74.37;82882.41;5070020;28;20107;-71
2023/05/19 08:22:29;;;;;;;12.45;4.65;;;;;;;-146.27;74.39;82822.13;5048165;28;20476;-71
2023/05/19 08:24:54;;;;;;;7.80;4.13;;;;;;;-146.27;71.95;82856.28;5050254;28;20031;-71
2023/05/19 08:27:19;;;;;;;10.13;4.68;;;;;;;-146.27;72.44;82781.94;5049772;28;20385;-71
2023/05/19 08:29:45;;;;;;;9.10;4.43;;;;;;;-146.27;72.72;82810.06;5067836;28;20376;-72
2023/05/19 08:32:10;;;;;;;14.18;4.80;;;;;;;-146.27;73.25;82789.97;5036492;28;20029;-72
2023/05/19 08:34:35;;;;;;;10.13;4.78;;;;;;;-146.27;73.82;82721.69;5033938;28;20102;-70
2023/05/19 08:37:01;;;;;;;9.95;3.67;;;;;;;-146.27;71.44;82697.56;5043858;28;20036;-72
2023/05/19 08:39:27;;;;;;;9.80;4.28;;;;;;;-146.27;71.00;82665.44;5051069;28;20037;-71
2023/05/19 08:41:53;;;;;;;9.95;4.03;;;;;;;-146.27;70.32;82609.19;5051689;28;20036;-71
2023/05/19 08:44:18;;;;;;;9.30;3.40;;;;;;;-146.27;69.29;82601.16;5060242;28;20029;-70
2023/05/19 08:46:46;;;;;;;11.05;4.00;;;;;;;-146.27;62.85;82583.06;5060466;28;20383;-73
2023/05/19 08:49:14;;;;;;;11.60;3.30;;;;;;;-146.27;62.80;82585.06;5054184;28;20020;-74
2023/05/19 08:52:26;;;;;;;12.57;3.65;;;;;;;-146.27;63.57;82524.81;5041362;28;20017;-77
2023/05/19 08:54:59;;;;;;;9.38;3.10;;;;;;;-146.27;62.69;82573.00;5032786;28;20144;-77
2023/05/19 08:57:25;;;;;;;;;;;;;;;-146.27;62.17;82542.88;5034065;28;20032;-77
2023/05/19 08:59:53;;;;;;;10.77;2.80;;;;;;;-146.27;62.49;82587.09;5053637;28;20333;-78
2023/05/19 09:02:19;;;;;;;8.60;2.83;;;;;;;-146.27;59.19;82573.00;5053414;28;20067;-78
2023/05/19 09:04:46;;;;;;;7.65;2.30;;;;;;;-146.27;60.48;82569.00;5053541;28;20084;-76
2023/05/19 09:07:13;;;;;;;8.38;2.83;;;;;;;-146.27;61.82;82528.81;5053859;28;20040;-77
2023/05/19 09:09:42;;;;;;;5.43;2.15;;;;;;;-146.27;57.05;82472.56;5058105;28;20484;-78
2023/05/19 09:12:08;;;;;;;6.22;2.28;;;;;;;-146.27;57.51;82444.44;5033959;28;20029;-77
2023/05/19 09:14:35;;;;;;;6.32;2.13;;;;;;;-146.27;55.01;82384.19;5043311;28;20029;-73
2023/05/19 09:17:01;;;;;;;7.50;2.13;;;;;;;-146.27;52.89;82392.22;5059805;28;20063;-72
2023/05/19 09:19:30;;;;;;;6.03;1.77;;;;;;;-146.27;52.57;82354.06;5064220;28;20071;-72
2023/05/19 09:22:00;;;;;;;6.43;2.08;;;;;;;-146.27;53.91;82340.00;5055768;28;20029;-74
2023/05/19 09:24:26;;;;;;;8.07;2.00;;;;;;;-146.27;51.56;82323.91;5050192;28;20032;-73
2023/05/19 09:26:55;;;;;;;5.40;1.92;;;;;;;-146.27;48.39;82303.84;5047862;28;20079;-75
2023/05/19 09:29:21;;;;;;;7.15;2.25;;;;;;;-146.27;47.49;82219.47;5033035;28;20082;-75
2023/05/19 09:32:00;;;;;;;8.82;2.20;;;;;;;-146.27;49.98;82183.31;5066321;28;20111;-73
2023/05/19 09:34:26;;;;;;;6.85;2.28;;;;;;;-146.27;49.41;82127.06;5072635;28;20055;-73
2023/05/19 09:36:52;;;;;;;9.07;2.00;;;;;;;-146.27;50.29;82102.97;5051907;28;20455;-73
2023/05/19 09:39:19;;;;;;;8.57;2.30;;;;;;;-146.27;45.94;82070.81;5049190;28;20119;-74
2023/05/19 09:41:45;;;;;;;11.02;2.40;;;;;;;-146.27;45.28;82062.78;5049516;28;20029;-74
2023/05/19 09:44:20;;;;;;;20.05;2.20;;;;;;;-146.27;46.78;82030.66;5049182;28;20720;-73
2023/05/19 09:46:52;;;;;;;6.00;1.55;;;;;;;-146.27;43.01;82002.53;5052328;28;20095;-73
2023/05/19 09:49:22;;;;;;;7.60;1.60;;;;;;;-146.27;42.40;81998.50;5052793;28;20120;-69
2023/05/19 09:51:49;;;;;;;7.72;1.90;;;;;;;-146.27;41.19;82012.56;5050883;28;20027;-71
2023/05/19 09:54:15;;;;;;;8.43;1.95;;;;;;;-146.27;43.30;81990.47;5053916;28;20115;-84
2023/05/19 09:56:41;;;;;;;5.00;1.60;;;;;;;-146.27;40.88;82004.53;5047839;28;20029;-77
2023/05/19 09:59:06;;;;;;;12.98;1.98;;;;;;;-146.27;41.54;81938.25;5032823;28;20079;-76
2023/05/19 10:01:32;;;;;;;8.90;2.40;;;;;;;-146.27;39.72;81857.91;5033624;28;20064;-77
2023/05/19 10:03:58;;;;;;;8.18;1.70;;;;;;;-146.27;38.57;81835.81;5052632;28;20115;-75
2023/05/19 10:06:25;;;;;;;6.13;1.85;;;;;;;-146.27;38.37;81805.69;5044352;28;20389;-76
2023/05/19 10:08:51;;;;;;;9.65;2.38;;;;;;;-146.27;39.91;81741.41;5052746;28;20025;-76
2023/05/19 10:11:17;;;;;;;4.68;1.80;;;;;;;-146.27;38.99;81753.47;5052518;28;20087;-78
2023/05/19 10:13:44;;;;;;;11.07;1.60;;;;;;;-146.27;38.48;81693.22;5051995;28;20134;-70
2023/05/19 10:16:10;;;;;;;5.18;1.80;;;;;;;-146.27;40.27;81731.38;5051826;28;20393;-69
2023/05/19 10:18:36;;;;;;;5.63;1.83;;;;;;;-146.27;39.02;81753.47;5052105;28;20094;-69
2023/05/19 10:21:02;;;;;;;6.80;1.90;;;;;;;-146.27;40.46;81745.44;5051182;28;20044;-70
2023/05/19 10:23:28;;;;;;;8.00;2.15;;;;;;;-146.27;40.79;81703.25;5050262;28;20119;-70
2023/05/19 10:25:57;;;;;;;9.45;2.80;;;;;;;-146.27;41.72;81673.13;5051703;28;20031;-70
2023/05/19 10:28:26;;;;;;;5.57;2.28;;;;;;;-146.27;41.79;81673.13;5054427;28;20052;-71
2023/05/19 10:30:55;;;;;;;8.80;2.33;;;;;;;-146.27;42.07;81681.16;5038907;28;20068;-70
2023/05/19 10:33:33;;;;;;;6.60;2.25;;;;;;;-146.27;41.59;81649.03;5051390;28;20542;-70
2023/05/19 10:36:24;;;;;;;8.55;1.98;;;;;;;-146.27;41.57;81616.91;5037847;28;20029;-70
2023/05/19 10:39:03;;;;;;;6.85;2.20;;;;;;;-146.27;41.01;81641.00;5031364;28;20036;-70
2023/05/19 10:41:44;;;;;;;8.23;2.53;;;;;;;-146.27;41.32;81661.09;5031920;28;20116;-69
2023/05/19 10:44:35;;;;;;;7.75;2.70;;;;;;;-146.27;41.05;81681.16;5032874;28;20037;-71
2023/05/19 10:47:01;;;;;;;8.77;2.20;;;;;;;-146.27;43.43;81580.75;5035736;28;20030;-70
2023/05/19 10:49:26;;;;;;;7.82;2.60;;;;;;;-146.27;41.28;81592.78;5031355;28;20059;-71
2023/05/19 10:51:55;;;;;;;10.60;3.05;;;;;;;-146.27;42.72;81632.97;5031667;28;20017;-69
2023/05/19 10:54:47;;;;;;;7.93;2.60;;;;;;;-146.27;42.88;81528.53;5062688;28;20030;-69
2023/05/19 10:57:16;;;;;;;4.75;1.85;;;;;;;-146.27;40.22;81444.19;5029854;28;20037;-69
2023/05/19 10:59:45;;;;;;;7.18;2.40;;;;;;;-146.27;41.29;81456.22;5031251;28;20030;-69
2023/05/19 11:02:37;;;;;;;14.25;2.83;;;;;;;-146.27;40.24;81484.34;5031011;28;20029;-71
2023/05/19 11:05:08;;;;;;;4.97;2.08;;;;;;;-146.27;38.13;81440.16;5051684;28;20475;-72
2023/05/19 11:07:33;;;;;;;8.77;2.20;;;;;;;-146.27;37.29;81450.19;5049473;28;20102;-71
2023/05/19 11:10:05;;;;;;;4.80;2.10;;;;;;;-146.27;39.02;81385.94;5048034;28;20049;-72
2023/05/19 11:12:39;;;;;;;11.65;2.45;;;;;;;-146.27;39.62;81397.97;5040447;28;20026;-68
2023/05/19 11:15:08;;;;;;;10.27;2.85;;;;;;;-146.27;39.13;81377.91;5031032;28;20029;-71
2023/05/19 11:17:34;;;;;;;7.40;2.75;;;;;;;-146.27;38.65;81371.88;5035438;28;20032;-71